Time;durP1;ratioP1;P1;durP2;ratioP2;P2;SDS_P1;SDS_P2;PMS_P1;PMS_P2;Temp;Humidity;BMP_temperature;BMP_pressure;BME280_temperature;BME280_humidity;BME280_pressure;Samples;Min_cycle;Max_cycle;Signal;HPM_P1;HPM_P2
2023/09/27 00:00:10;;;;;;;19.52;12.90;;;;;;;;;;6181502;23;20020;-72
2023/09/27 00:02:40;;;;;;;19.35;11.98;;;;;;;;;;6181468;23;20049;-72
2023/09/27 00:05:07;;;;;;;20.45;12.43;;;;;;;;;;6156923;23;20044;-70
2023/09/27 00:07:34;;;;;;;19.42;11.52;;;;;;;;;;6181311;23;20104;-72
2023/09/27 00:10:01;;;;;;;18.73;12.57;;;;;;;;;;6183261;23;20034;-70
2023/09/27 00:12:29;;;;;;;23.83;11.70;;;;;;;;;;6181523;23;20019;-72
2023/09/27 00:14:56;;;;;;;12.85;11.32;;;;;;;;;;6183204;23;20017;-71
2023/09/27 00:17:22;;;;;;;19.42;12.32;;;;;;;;;;6183221;23;20047;-72
2023/09/27 00:19:49;;;;;;;20.40;12.27;;;;;;;;;;6181299;23;20009;-70
2023/09/27 00:22:15;;;;;;;16.48;12.23;;;;;;;;;;6181407;23;20072;-72
2023/09/27 00:24:42;;;;;;;15.38;11.45;;;;;;;;;;6156492;23;20091;-72
2023/09/27 00:27:10;;;;;;;21.95;12.35;;;;;;;;;;6182736;23;20080;-71
2023/09/27 00:29:36;;;;;;;17.17;11.30;;;;;;;;;;6181145;23;20544;-71
2023/09/27 00:32:02;;;;;;;16.15;9.60;;;;;;;;;;6186027;23;20016;-70
2023/09/27 00:34:29;;;;;;;11.77;9.43;;;;;;;;;;6212853;23;20151;-71
2023/09/27 00:36:55;;;;;;;19.33;11.32;;;;;;;;;;6161222;23;20021;-71
2023/09/27 00:39:21;;;;;;;14.05;11.90;;;;;;;;;;6213001;23;20099;-71
2023/09/27 00:41:47;;;;;;;21.10;11.95;;;;;;;;;;6161082;23;20047;-71
2023/09/27 00:44:13;;;;;;;15.20;10.13;;;;;;;;;;6186407;23;20026;-71
2023/09/27 00:46:39;;;;;;;18.20;12.93;;;;;;;;;;6212466;23;20040;-71
2023/09/27 00:49:05;;;;;;;16.38;11.05;;;;;;;;;;6213028;23;20680;-69
2023/09/27 00:51:31;;;;;;;18.90;12.00;;;;;;;;;;6212733;23;20637;-70
2023/09/27 00:53:58;;;;;;;29.95;12.85;;;;;;;;;;6160734;23;20040;-70
2023/09/27 00:56:24;;;;;;;21.77;12.98;;;;;;;;;;6212688;23;20026;-70
2023/09/27 00:58:50;;;;;;;27.10;12.77;;;;;;;;;;6186064;23;20013;-70
2023/09/27 01:01:16;;;;;;;15.73;11.70;;;;;;;;;;6212423;23;20359;-72
2023/09/27 01:03:42;;;;;;;24.38;12.68;;;;;;;;;;6212071;23;20107;-70
2023/09/27 01:06:08;;;;;;;22.65;12.90;;;;;;;;;;6212518;23;20012;-71
2023/09/27 01:08:34;;;;;;;29.10;13.50;;;;;;;;;;6212656;23;20087;-70
2023/09/27 01:11:00;;;;;;;29.35;13.00;;;;;;;;;;6212212;23;20020;-71
2023/09/27 01:13:26;;;;;;;35.25;15.02;;;;;;;;;;6186348;23;20009;-69
2023/09/27 01:15:52;;;;;;;37.53;14.05;;;;;;;;;;6212446;23;20166;-71
2023/09/27 01:18:18;;;;;;;23.55;11.38;;;;;;;;;;6186423;23;20020;-72
2023/09/27 01:20:44;;;;;;;19.63;12.13;;;;;;;;;;6186549;23;20020;-70
2023/09/27 01:23:10;;;;;;;27.48;12.75;;;;;;;;;;6214279;23;20067;-72
2023/09/27 01:25:36;;;;;;;22.02;10.88;;;;;;;;;;6212813;23;20483;-72
2023/09/27 01:28:04;;;;;;;20.88;10.93;;;;;;;;;;6186014;23;20032;-71
2023/09/27 01:30:33;;;;;;;16.95;11.85;;;;;;;;;;6161148;23;20091;-71
2023/09/27 01:33:00;;;;;;;20.35;11.75;;;;;;;;;;6160668;23;20107;-72
2023/09/27 01:35:26;;;;;;;21.95;12.77;;;;;;;;;;6212312;23;20016;-72
2023/09/27 01:37:52;;;;;;;21.98;12.32;;;;;;;;;;6211906;23;20013;-72
2023/09/27 01:40:22;;;;;;;22.98;11.18;;;;;;;;;;6185347;23;20017;-73
2023/09/27 01:42:48;;;;;;;19.50;12.32;;;;;;;;;;6160377;23;20023;-71
2023/09/27 01:45:14;;;;;;;16.13;12.30;;;;;;;;;;6160867;23;20095;-73
2023/09/27 01:47:40;;;;;;;14.77;11.55;;;;;;;;;;6211851;23;20512;-71
2023/09/27 01:50:07;;;;;;;11.75;10.45;;;;;;;;;;6185980;23;20016;-70
2023/09/27 01:52:33;;;;;;;19.88;13.02;;;;;;;;;;6185174;23;20024;-72
2023/09/27 01:54:59;;;;;;;18.52;13.07;;;;;;;;;;6160625;23;20071;-72
2023/09/27 01:57:25;;;;;;;27.40;15.10;;;;;;;;;;6185593;23;20100;-72
2023/09/27 01:59:51;;;;;;;17.83;13.80;;;;;;;;;;6160757;23;20009;-72
2023/09/27 02:02:17;;;;;;;18.85;13.63;;;;;;;;;;6184891;23;20553;-71
2023/09/27 02:04:43;;;;;;;17.65;13.85;;;;;;;;;;6211562;23;20024;-70
2023/09/27 02:07:09;;;;;;;15.82;12.77;;;;;;;;;;6185374;23;20075;-70
2023/09/27 02:09:36;;;;;;;19.05;11.75;;;;;;;;;;6211844;23;20016;-72
2023/09/27 02:12:02;;;;;;;19.52;11.65;;;;;;;;;;6185155;23;20015;-71
2023/09/27 02:14:28;;;;;;;15.30;12.05;;;;;;;;;;6185306;23;20017;-70
2023/09/27 02:16:55;;;;;;;17.17;12.32;;;;;;;;;;6160164;23;20044;-72
2023/09/27 02:19:21;;;;;;;15.93;12.48;;;;;;;;;;6212243;23;20390;-71
2023/09/27 02:21:47;;;;;;;15.00;12.73;;;;;;;;;;6211640;23;20012;-71
2023/09/27 02:24:16;;;;;;;17.35;12.23;;;;;;;;;;6186149;23;20020;-71
2023/09/27 02:26:43;;;;;;;14.40;11.55;;;;;;;;;;6213270;23;20385;-72
2023/09/27 02:29:09;;;;;;;18.45;11.20;;;;;;;;;;6185511;23;20450;-71
2023/09/27 02:31:35;;;;;;;13.18;11.57;;;;;;;;;;6211842;23;20491;-72
2023/09/27 02:34:02;;;;;;;19.65;11.85;;;;;;;;;;6211513;23;20028;-72
2023/09/27 02:36:28;;;;;;;18.85;11.35;;;;;;;;;;6185217;23;20019;-70
2023/09/27 02:38:54;;;;;;;20.08;11.70;;;;;;;;;;6184964;23;20013;-72
2023/09/27 02:41:19;;;;;;;17.95;11.23;;;;;;;;;;6159854;23;20012;-72
2023/09/27 02:43:45;;;;;;;18.92;12.27;;;;;;;;;;6211398;23;20059;-71
2023/09/27 02:46:12;;;;;;;20.13;12.10;;;;;;;;;;6160650;23;20019;-71
2023/09/27 02:48:38;;;;;;;18.08;11.57;;;;;;;;;;6160359;23;20476;-71
2023/09/27 02:51:05;;;;;;;20.63;11.70;;;;;;;;;;6160107;23;20465;-71
2023/09/27 02:53:31;;;;;;;17.90;11.95;;;;;;;;;;6211582;23;20019;-72
2023/09/27 02:55:58;;;;;;;19.10;12.65;;;;;;;;;;6211597;23;20476;-74
2023/09/27 02:58:25;;;;;;;17.63;12.82;;;;;;;;;;6211595;23;20103;-72
2023/09/27 03:00:52;;;;;;;19.83;12.13;;;;;;;;;;6211405;23;20009;-71
2023/09/27 03:03:19;;;;;;;22.73;12.43;;;;;;;;;;6161115;23;20023;-72
2023/09/27 03:05:45;;;;;;;19.13;12.88;;;;;;;;;;6185156;23;20036;-72
2023/09/27 03:08:11;;;;;;;17.35;12.93;;;;;;;;;;6160387;23;20012;-71
2023/09/27 03:10:38;;;;;;;15.45;11.00;;;;;;;;;;6159923;23;20078;-70
2023/09/27 03:13:07;;;;;;;22.80;12.13;;;;;;;;;;6184645;23;20013;-72
2023/09/27 03:15:34;;;;;;;12.70;10.40;;;;;;;;;;6160152;23;20527;-70
2023/09/27 03:18:00;;;;;;;16.73;12.23;;;;;;;;;;6186809;23;20008;-71
2023/09/27 03:20:26;;;;;;;16.52;10.95;;;;;;;;;;6162570;23;20024;-72
2023/09/27 03:22:52;;;;;;;16.70;11.90;;;;;;;;;;6186600;23;20032;-72
2023/09/27 03:25:18;;;;;;;17.50;12.13;;;;;;;;;;6213280;23;20021;-71
2023/09/27 03:27:44;;;;;;;18.60;11.98;;;;;;;;;;6213233;23;20013;-73
2023/09/27 03:30:11;;;;;;;17.00;11.80;;;;;;;;;;6213991;23;20357;-71
2023/09/27 03:32:38;;;;;;;14.57;11.77;;;;;;;;;;6186990;23;20031;-70
2023/09/27 03:35:07;;;;;;;18.42;12.32;;;;;;;;;;6213077;23;20008;-71
2023/09/27 03:37:34;;;;;;;17.30;12.55;;;;;;;;;;6161857;23;20023;-71
2023/09/27 03:40:01;;;;;;;14.70;12.32;;;;;;;;;;6186515;23;20008;-71
2023/09/27 03:42:29;;;;;;;17.77;12.18;;;;;;;;;;6186696;23;20515;-71
2023/09/27 03:44:55;;;;;;;18.40;12.02;;;;;;;;;;6186512;23;20060;-73
2023/09/27 03:47:22;;;;;;;18.42;12.13;;;;;;;;;;6186297;23;20012;-71
2023/09/27 03:49:48;;;;;;;15.35;11.18;;;;;;;;;;6212384;23;20459;-71
2023/09/27 03:52:14;;;;;;;17.95;11.90;;;;;;;;;;6185829;23;20035;-71
2023/09/27 03:54:40;;;;;;;14.98;11.98;;;;;;;;;;6186707;23;20012;-72
2023/09/27 03:57:07;;;;;;;15.40;11.95;;;;;;;;;;6213022;23;20012;-72
2023/09/27 03:59:33;;;;;;;17.23;11.77;;;;;;;;;;6136877;23;20016;-71
2023/09/27 04:01:59;;;;;;;15.45;11.00;;;;;;;;;;6186421;23;20568;-72
2023/09/27 04:04:25;;;;;;;13.52;10.98;;;;;;;;;;6186740;23;20111;-71
2023/09/27 04:06:51;;;;;;;17.70;11.10;;;;;;;;;;6186122;23;20027;-71
2023/09/27 04:09:17;;;;;;;14.20;10.48;;;;;;;;;;6186475;23;20485;-72
2023/09/27 04:11:44;;;;;;;15.40;10.30;;;;;;;;;;6212832;23;20067;-72
2023/09/27 04:14:11;;;;;;;17.58;10.63;;;;;;;;;;6212674;23;20017;-72
2023/09/27 05:15:12;;;;;;;26.95;16.35;;;;;;;;;;6268850;22;20438;-72
2023/09/27 05:17:39;;;;;;;39.88;17.63;;;;;;;;;;6221048;22;20069;-72
2023/09/27 05:20:09;;;;;;;26.23;15.65;;;;;;;;;;6269093;22;20341;-72
2023/09/27 05:22:35;;;;;;;28.92;15.20;;;;;;;;;;6272102;22;20085;-72
2023/09/27 05:25:01;;;;;;;22.85;13.05;;;;;;;;;;6272197;22;20460;-72
2023/09/27 05:27:27;;;;;;;18.85;12.20;;;;;;;;;;6272357;22;20007;-72
2023/09/27 05:29:53;;;;;;;22.33;11.55;;;;;;;;;;6272088;22;20483;-70
2023/09/27 05:32:19;;;;;;;29.42;12.05;;;;;;;;;;6271703;22;20010;-71
2023/09/27 05:34:45;;;;;;;23.55;13.40;;;;;;;;;;6245257;22;20103;-70
2023/09/27 05:37:11;;;;;;;20.85;11.98;;;;;;;;;;6244719;22;20043;-71
2023/09/27 05:39:37;;;;;;;22.08;11.55;;;;;;;;;;6244717;22;20023;-72
2023/09/27 05:42:03;;;;;;;19.25;10.50;;;;;;;;;;6245909;22;20296;-71
2023/09/27 05:44:30;;;;;;;25.00;11.27;;;;;;;;;;6245019;22;20019;-71
2023/09/27 05:46:56;;;;;;;18.52;10.95;;;;;;;;;;6244780;22;20027;-72
2023/09/27 05:49:22;;;;;;;16.83;12.40;;;;;;;;;;6272214;22;20007;-71
2023/09/27 05:51:48;;;;;;;16.25;9.93;;;;;;;;;;6272235;22;20007;-71
2023/09/27 05:54:14;;;;;;;20.95;11.13;;;;;;;;;;6245442;22;20018;-70
2023/09/27 05:56:43;;;;;;;12.80;10.70;;;;;;;;;;6250886;22;20014;-72
2023/09/27 05:59:11;;;;;;;15.60;10.23;;;;;;;;;;6271795;22;20015;-71
2023/09/27 06:01:37;;;;;;;13.73;10.57;;;;;;;;;;6272256;22;20364;-71
2023/09/27 06:04:03;;;;;;;11.75;10.00;;;;;;;;;;6244496;22;20031;-72
2023/09/27 06:06:30;;;;;;;18.10;10.48;;;;;;;;;;6271862;22;20012;-72
2023/09/27 06:08:55;;;;;;;17.92;10.38;;;;;;;;;;6271543;22;20019;-71
2023/09/27 06:11:22;;;;;;;21.45;10.50;;;;;;;;;;6245015;22;20184;-70
2023/09/27 06:13:47;;;;;;;12.98;10.30;;;;;;;;;;6244730;22;20018;-70
2023/09/27 06:16:14;;;;;;;14.23;10.40;;;;;;;;;;6244397;22;20030;-71
2023/09/27 06:18:39;;;;;;;17.02;10.50;;;;;;;;;;6271560;22;20018;-70
2023/09/27 06:21:05;;;;;;;19.45;11.07;;;;;;;;;;6271563;22;20015;-70
2023/09/27 06:23:31;;;;;;;15.07;9.85;;;;;;;;;;6244253;22;20050;-71
2023/09/27 06:25:57;;;;;;;11.98;10.60;;;;;;;;;;6271642;22;20012;-71
2023/09/27 06:28:23;;;;;;;18.05;10.30;;;;;;;;;;6244733;22;20532;-71
2023/09/27 06:30:50;;;;;;;23.65;11.52;;;;;;;;;;6271971;22;20023;-70
2023/09/27 06:33:16;;;;;;;24.42;10.88;;;;;;;;;;6271320;22;20011;-70
2023/09/27 06:35:42;;;;;;;10.98;9.82;;;;;;;;;;6244613;22;20020;-70
2023/09/27 06:38:08;;;;;;;15.95;10.75;;;;;;;;;;6271676;22;20035;-71
2023/09/27 06:40:35;;;;;;;17.45;11.25;;;;;;;;;;6244857;22;20455;-70
2023/09/27 06:43:01;;;;;;;15.98;11.48;;;;;;;;;;6244899;22;20008;-69
2023/09/27 06:45:28;;;;;;;14.77;12.15;;;;;;;;;;6243875;22;20064;-69
2023/09/27 06:47:54;;;;;;;12.27;11.00;;;;;;;;;;6244464;22;20087;-71
2023/09/27 06:50:21;;;;;;;12.82;11.18;;;;;;;;;;6244677;22;20037;-70
2023/09/27 06:52:48;;;;;;;12.27;9.95;;;;;;;;;;6270838;22;20007;-70
2023/09/27 06:55:16;;;;;;;14.77;10.60;;;;;;;;;;6219437;22;20389;-71
2023/09/27 06:57:44;;;;;;;14.90;11.75;;;;;;;;;;6244309;22;20093;-71
2023/09/27 07:00:18;;;;;;;20.13;11.15;;;;;;;;;;6271149;22;20042;-72
2023/09/27 07:02:47;;;;;;;16.50;10.75;;;;;;;;;;6221512;22;20384;-71
2023/09/27 07:05:14;;;;;;;15.90;10.35;;;;;;;;;;6244711;22;20020;-72
2023/09/27 07:07:40;;;;;;;16.70;10.52;;;;;;;;;;6244637;22;20486;-72
2023/09/27 07:10:07;;;;;;;11.73;9.70;;;;;;;;;;6245182;22;20042;-72
2023/09/27 07:12:37;;;;;;;12.25;10.73;;;;;;;;;;6245199;22;20456;-72
2023/09/27 07:15:12;;;;;;;14.85;10.82;;;;;;;;;;6264425;22;20047;-71
2023/09/27 07:17:38;;;;;;;13.00;10.45;;;;;;;;;;6241019;23;20095;-72
2023/09/27 07:22:53;;;;;;;11.05;9.75;;;;;;;;;;6241531;23;20061;-70
2023/09/27 07:25:20;;;;;;;13.23;8.93;;;;;;;;;;6214137;23;20531;-71
2023/09/27 07:27:53;;;;;;;9.25;8.32;;;;;;;;;;6241039;23;20091;-70
2023/09/27 07:30:23;;;;;;;9.38;8.30;;;;;;;;;;6240414;23;20380;-67
2023/09/27 07:32:50;;;;;;;20.35;8.57;;;;;;;;;;6240999;23;20008;-70
2023/09/27 07:35:18;;;;;;;12.68;8.50;;;;;;;;;;6213378;23;20019;-70
2023/09/27 07:37:44;;;;;;;11.25;8.52;;;;;;;;;;6241128;23;20019;-71
2023/09/27 07:40:11;;;;;;;8.93;7.90;;;;;;;;;;6210750;23;20016;-68
2023/09/27 07:42:37;;;;;;;11.32;8.10;;;;;;;;;;6213122;23;20016;-67
2023/09/27 07:45:05;;;;;;;11.40;7.75;;;;;;;;;;6240224;23;20063;-70
2023/09/27 07:47:33;;;;;;;20.75;8.88;;;;;;;;;;6214227;23;20446;-70
2023/09/27 07:49:59;;;;;;;9.07;7.22;;;;;;;;;;6240615;23;20465;-69
2023/09/27 07:52:25;;;;;;;8.57;6.95;;;;;;;;;;6239780;23;20038;-68
2023/09/27 07:54:51;;;;;;;8.95;7.00;;;;;;;;;;6240062;23;20016;-69
2023/09/27 07:57:18;;;;;;;10.93;7.70;;;;;;;;;;6188281;23;20035;-70
2023/09/27 07:59:43;;;;;;;6.93;5.95;;;;;;;;;;6239898;23;20016;-70
2023/09/27 08:02:09;;;;;;;6.72;5.68;;;;;;;;;;6214411;23;20427;-72
2023/09/27 08:04:39;;;;;;;12.45;6.05;;;;;;;;;;6241352;23;20078;-71
2023/09/27 08:07:05;;;;;;;7.00;5.45;;;;;;;;;;6217554;23;20016;-72
2023/09/27 08:09:38;;;;;;;6.00;5.40;;;;;;;;;;6192048;23;20567;-72
2023/09/27 08:12:05;;;;;;;5.63;5.13;;;;;;;;;;6242271;23;20012;-72
2023/09/27 08:14:32;;;;;;;6.47;4.60;;;;;;;;;;6214172;22;20103;-72
2023/09/27 08:16:58;;;;;;;4.18;3.88;;;;;;;;;;6216114;23;20031;-72
2023/09/27 08:19:25;;;;;;;8.25;4.60;;;;;;;;;;6191205;23;20039;-70
2023/09/27 08:21:55;;;;;;;9.68;4.10;;;;;;;;;;6215931;23;20521;-71
2023/09/27 08:24:22;;;;;;;4.13;3.40;;;;;;;;;;6216734;23;20492;-71
2023/09/27 08:26:48;;;;;;;4.70;3.33;;;;;;;;;;6242625;23;20012;-71
2023/09/27 08:29:14;;;;;;;6.43;3.65;;;;;;;;;;6239748;23;20066;-71
2023/09/27 08:31:40;;;;;;;5.35;3.65;;;;;;;;;;6215236;23;20400;-72
2023/09/27 08:34:09;;;;;;;7.10;3.55;;;;;;;;;;6216502;23;20456;-73
2023/09/27 08:36:35;;;;;;;5.85;3.80;;;;;;;;;;6216498;23;20074;-72
2023/09/27 08:39:02;;;;;;;5.40;3.28;;;;;;;;;;6242338;23;20012;-71
2023/09/27 08:41:28;;;;;;;3.50;3.20;;;;;;;;;;6240878;23;20058;-72
2023/09/27 08:43:54;;;;;;;3.58;3.28;;;;;;;;;;6189913;23;20122;-72
2023/09/27 08:46:19;;;;;;;6.88;3.67;;;;;;;;;;6242630;23;20371;-72
2023/09/27 08:48:45;;;;;;;4.90;2.92;;;;;;;;;;6216331;23;20016;-71
2023/09/27 08:51:11;;;;;;;4.20;3.00;;;;;;;;;;6242780;23;20012;-71
2023/09/27 08:53:38;;;;;;;4.40;3.10;;;;;;;;;;6216498;23;20015;-72
2023/09/27 08:56:06;;;;;;;3.97;3.25;;;;;;;;;;6243383;23;20477;-72
2023/09/27 08:58:34;;;;;;;4.10;3.80;;;;;;;;;;6243302;23;20475;-72
2023/09/27 09:01:00;;;;;;;4.47;3.40;;;;;;;;;;6242724;23;20020;-73
2023/09/27 09:03:26;;;;;;;4.35;3.03;;;;;;;;;;6242848;23;20364;-71
2023/09/27 09:05:52;;;;;;;5.55;3.30;;;;;;;;;;6191823;23;20539;-71
2023/09/27 09:08:19;;;;;;;4.28;3.30;;;;;;;;;;6217044;23;20039;-73
2023/09/27 09:10:46;;;;;;;5.65;3.40;;;;;;;;;;6216518;23;20020;-72
2023/09/27 09:13:11;;;;;;;4.65;3.20;;;;;;;;;;6244020;23;20008;-74
2023/09/27 09:15:40;;;;;;;6.30;3.70;;;;;;;;;;6193403;23;20024;-73
2023/09/27 09:18:11;;;;;;;5.25;3.50;;;;;;;;;;6168491;23;20012;-74
2023/09/27 09:20:51;;;;;;;;;;;;;;;;;;6194874;23;20444;-74
2023/09/27 09:23:31;;;;;;;3.63;3.13;;;;;;;;;;6244245;23;19907;-73
2023/09/27 09:25:57;;;;;;;3.92;3.30;;;;;;;;;;6242784;23;20034;-72
2023/09/27 09:28:24;;;;;;;7.18;3.78;;;;;;;;;;6215428;23;20012;-73
2023/09/27 09:30:50;;;;;;;8.95;3.65;;;;;;;;;;6215740;23;20020;-73
2023/09/27 09:33:17;;;;;;;4.25;3.85;;;;;;;;;;6215595;23;20012;-73
2023/09/27 09:35:43;;;;;;;4.45;3.40;;;;;;;;;;6242562;23;20027;-72
2023/09/27 09:38:09;;;;;;;5.78;3.42;;;;;;;;;;6241955;23;20012;-72
2023/09/27 09:40:52;;;;;;;5.93;3.55;;;;;;;;;;6242616;23;20015;-72
2023/09/27 09:43:32;;;;;;;3.50;3.20;;;;;;;;;;6241816;23;20039;-73
2023/09/27 09:45:58;;;;;;;3.60;3.30;;;;;;;;;;6242527;23;20411;-72
2023/09/27 09:48:24;;;;;;;4.47;3.60;;;;;;;;;;6215132;23;20087;-72
2023/09/27 09:50:50;;;;;;;10.07;3.42;;;;;;;;;;6215550;23;20016;-72
2023/09/27 09:53:16;;;;;;;5.50;3.35;;;;;;;;;;6215133;23;20047;-72
2023/09/27 09:55:42;;;;;;;3.92;3.60;;;;;;;;;;6216120;23;20099;-73
2023/09/27 09:58:21;;;;;;;4.93;3.50;;;;;;;;;;6243189;23;20012;-72
2023/09/27 10:00:49;;;;;;;4.07;3.50;;;;;;;;;;6242319;23;20451;-73
2023/09/27 10:03:19;;;;;;;3.80;3.08;;;;;;;;;;6241715;23;20059;-70
2023/09/27 10:05:45;;;;;;;3.60;3.30;;;;;;;;;;6190797;23;20039;-72
2023/09/27 10:08:11;;;;;;;4.70;3.28;;;;;;;;;;6215259;23;20298;-72
2023/09/27 10:10:37;;;;;;;3.85;3.30;;;;;;;;;;6190470;23;20023;-76
2023/09/27 10:13:06;;;;;;;4.07;3.28;;;;;;;;;;6190149;23;20008;-72
2023/09/27 10:15:33;;;;;;;5.60;3.80;;;;;;;;;;6241880;22;20533;-72
2023/09/27 10:18:18;;;;;;;6.18;3.40;;;;;;;;;;6242298;23;20023;-72
2023/09/27 10:21:03;;;;;;;4.05;3.60;;;;;;;;;;6240962;23;20012;-72
2023/09/27 10:23:33;;;;;;;4.10;3.80;;;;;;;;;;6214842;23;20438;-72
2023/09/27 10:26:15;;;;;;;7.93;3.67;;;;;;;;;;6241886;23;20062;-73
2023/09/27 10:29:04;;;;;;;8.75;5.80;;;;;;;;;;6241996;23;20012;-72
2023/09/27 10:31:30;;;;;;;4.50;3.90;;;;;;;;;;6242980;23;20012;-73
2023/09/27 10:33:56;;;;;;;6.65;3.78;;;;;;;;;;6190665;23;20027;-72
2023/09/27 10:36:22;;;;;;;4.85;3.65;;;;;;;;;;6217543;23;20124;-72
2023/09/27 10:38:48;;;;;;;4.18;3.50;;;;;;;;;;6216462;23;20044;-71
2023/09/27 10:41:34;;;;;;;4.22;3.90;;;;;;;;;;6215252;23;20042;-72
2023/09/27 10:44:00;;;;;;;5.05;3.58;;;;;;;;;;6241709;23;20066;-72
2023/09/27 10:46:26;;;;;;;4.47;4.07;;;;;;;;;;6189713;23;20073;-72
2023/09/27 10:48:55;;;;;;;4.63;4.00;;;;;;;;;;6190337;23;20091;-72
2023/09/27 10:51:21;;;;;;;7.80;3.90;;;;;;;;;;6214997;23;20087;-72
2023/09/27 10:53:48;;;;;;;4.97;3.88;;;;;;;;;;6241737;23;20016;-73
2023/09/27 10:56:15;;;;;;;4.55;4.15;;;;;;;;;;6214636;23;20128;-73
2023/09/27 10:58:43;;;;;;;4.88;3.33;;;;;;;;;;6165259;23;20020;-73
2023/09/27 11:01:11;;;;;;;6.05;4.50;;;;;;;;;;6241639;23;20012;-73
2023/09/27 11:03:37;;;;;;;9.65;5.05;;;;;;;;;;6241998;23;20012;-73
2023/09/27 11:06:10;;;;;;;6.22;3.60;;;;;;;;;;6241579;23;20012;-73
2023/09/27 11:08:36;;;;;;;4.57;3.28;;;;;;;;;;6241735;23;20012;-73
2023/09/27 11:11:02;;;;;;;6.15;4.50;;;;;;;;;;6190147;23;20012;-73
2023/09/27 11:13:29;;;;;;;4.45;3.85;;;;;;;;;;6189484;23;20456;-73
2023/09/27 11:16:06;;;;;;;6.78;3.70;;;;;;;;;;6241392;22;20032;-73
2023/09/27 11:18:35;;;;;;;4.93;3.72;;;;;;;;;;6214585;23;20070;-72
2023/09/27 11:21:10;;;;;;;3.78;3.30;;;;;;;;;;6215019;23;20046;-73
2023/09/27 11:23:54;;;;;;;4.10;3.20;;;;;;;;;;6164810;23;20024;-72
2023/09/27 11:26:33;;;;;;;8.15;3.20;;;;;;;;;;6215469;23;20016;-72
2023/09/27 11:28:59;;;;;;;6.22;3.33;;;;;;;;;;6243314;23;20016;-72
2023/09/27 11:31:26;;;;;;;3.38;2.85;;;;;;;;;;6243503;23;20078;-72
2023/09/27 11:33:52;;;;;;;5.10;3.00;;;;;;;;;;6244373;23;20012;-73
2023/09/27 11:36:18;;;;;;;3.97;3.47;;;;;;;;;;6215019;23;20097;-73
2023/09/27 11:38:49;;;;;;;4.22;3.10;;;;;;;;;;6244215;23;20484;-72
2023/09/27 11:41:16;;;;;;;5.72;3.25;;;;;;;;;;6216542;23;20050;-72
2023/09/27 11:43:43;;;;;;;4.00;3.42;;;;;;;;;;6243656;23;20020;-72
2023/09/27 11:46:09;;;;;;;4.72;3.40;;;;;;;;;;6242864;23;20012;-72
2023/09/27 11:48:35;;;;;;;5.72;3.28;;;;;;;;;;6216602;23;20116;-73
2023/09/27 11:51:02;;;;;;;3.28;3.05;;;;;;;;;;6216880;23;20043;-72
2023/09/27 11:53:28;;;;;;;5.88;3.42;;;;;;;;;;6243202;23;20016;-72
2023/09/27 11:55:57;;;;;;;3.42;3.13;;;;;;;;;;6243677;23;20031;-72
2023/09/27 11:58:23;;;;;;;7.72;5.13;;;;;;;;;;6216616;23;20023;-73
2023/09/27 12:00:49;;;;;;;4.70;3.42;;;;;;;;;;6216781;23;20012;-71
2023/09/27 12:03:16;;;;;;;3.70;3.40;;;;;;;;;;6243070;23;20016;-72
2023/09/27 12:05:42;;;;;;;5.50;2.78;;;;;;;;;;6244703;23;20416;-72
2023/09/27 12:08:08;;;;;;;3.20;2.90;;;;;;;;;;6216622;23;20008;-73
2023/09/27 12:10:34;;;;;;;6.65;3.28;;;;;;;;;;6216635;23;20476;-72
2023/09/27 12:13:00;;;;;;;5.18;3.08;;;;;;;;;;6191836;23;20023;-72
2023/09/27 12:15:26;;;;;;;3.00;2.80;;;;;;;;;;6243018;22;20124;-72
2023/09/27 12:17:53;;;;;;;3.22;2.97;;;;;;;;;;6243454;23;20012;-72
2023/09/27 12:20:19;;;;;;;5.15;3.15;;;;;;;;;;6216078;23;20062;-71
2023/09/27 12:22:45;;;;;;;7.50;3.20;;;;;;;;;;6243239;23;20095;-72
2023/09/27 12:25:11;;;;;;;3.80;3.10;;;;;;;;;;6191103;23;20067;-72
2023/09/27 12:27:37;;;;;;;6.38;3.30;;;;;;;;;;6216598;23;20012;-72
2023/09/27 12:30:05;;;;;;;9.45;3.08;;;;;;;;;;6216482;23;20337;-72
2023/09/27 12:32:32;;;;;;;3.35;3.05;;;;;;;;;;6242878;23;20035;-72
2023/09/27 12:34:58;;;;;;;2.88;2.60;;;;;;;;;;6243079;23;20019;-72
2023/09/27 12:37:24;;;;;;;5.72;3.22;;;;;;;;;;6215951;23;20014;-72
2023/09/27 12:39:50;;;;;;;5.82;3.05;;;;;;;;;;6216274;23;20016;-72
2023/09/27 12:42:16;;;;;;;10.00;3.63;;;;;;;;;;6243071;23;20055;-73
2023/09/27 12:44:42;;;;;;;2.85;2.65;;;;;;;;;;6242629;23;20364;-73
2023/09/27 12:47:09;;;;;;;3.05;2.72;;;;;;;;;;6216248;23;20008;-73
2023/09/27 12:49:35;;;;;;;3.05;2.75;;;;;;;;;;6216117;23;20016;-73
2023/09/27 12:52:01;;;;;;;3.25;3.00;;;;;;;;;;6191318;23;20066;-73
2023/09/27 12:54:27;;;;;;;6.07;3.40;;;;;;;;;;6242549;23;20058;-73
2023/09/27 12:56:54;;;;;;;3.78;3.05;;;;;;;;;;6243050;23;20465;-72
2023/09/27 12:59:21;;;;;;;4.82;3.05;;;;;;;;;;6242923;23;20012;-72
2023/09/27 13:01:47;;;;;;;5.93;3.28;;;;;;;;;;6242778;23;20008;-72
2023/09/27 13:04:13;;;;;;;2.92;2.72;;;;;;;;;;6242430;23;20023;-72
2023/09/27 13:06:40;;;;;;;3.70;3.00;;;;;;;;;;6243047;23;20012;-72
2023/09/27 13:09:06;;;;;;;3.00;2.78;;;;;;;;;;6243318;23;20020;-72
2023/09/27 13:11:33;;;;;;;3.38;3.15;;;;;;;;;;6215790;23;20449;-72
2023/09/27 13:13:59;;;;;;;4.13;2.72;;;;;;;;;;6216030;23;20048;-73
2023/09/27 13:16:26;;;;;;;2.78;2.55;;;;;;;;;;6242375;22;20027;-72
2023/09/27 13:18:52;;;;;;;3.80;3.20;;;;;;;;;;6216194;23;20091;-71
2023/09/27 13:21:18;;;;;;;5.38;2.88;;;;;;;;;;6242671;23;20012;-72
2023/09/27 13:23:44;;;;;;;5.50;3.20;;;;;;;;;;6215916;23;20103;-72
2023/09/27 13:26:11;;;;;;;3.42;3.13;;;;;;;;;;6242689;23;20075;-72
2023/09/27 13:28:37;;;;;;;3.83;2.92;;;;;;;;;;6242426;23;20012;-72
2023/09/27 13:31:03;;;;;;;11.43;5.53;;;;;;;;;;6242646;23;20011;-72
2023/09/27 13:33:29;;;;;;;5.18;3.00;;;;;;;;;;6242128;23;20108;-72
2023/09/27 13:35:57;;;;;;;4.10;3.60;;;;;;;;;;6242623;23;20012;-72
2023/09/27 13:38:24;;;;;;;6.63;4.40;;;;;;;;;;6242368;23;20012;-73
2023/09/27 13:40:50;;;;;;;8.57;4.07;;;;;;;;;;6242452;23;20038;-73
2023/09/27 13:43:17;;;;;;;3.70;3.40;;;;;;;;;;6242207;23;20368;-71
2023/09/27 13:45:43;;;;;;;4.75;3.00;;;;;;;;;;6242304;23;20513;-72
2023/09/27 13:48:09;;;;;;;3.38;3.08;;;;;;;;;;6242434;23;20008;-73
2023/09/27 13:50:35;;;;;;;5.50;3.08;;;;;;;;;;6241971;23;20392;-73
2023/09/27 13:53:02;;;;;;;3.38;3.05;;;;;;;;;;6242243;23;20008;-70
2023/09/27 13:55:28;;;;;;;5.85;3.38;;;;;;;;;;6241975;23;20019;-72
2023/09/27 13:57:55;;;;;;;5.15;3.20;;;;;;;;;;6242517;23;20456;-73
2023/09/27 14:00:22;;;;;;;9.10;3.35;;;;;;;;;;6215207;23;20114;-72
2023/09/27 14:02:48;;;;;;;3.70;3.40;;;;;;;;;;6242282;23;20448;-72
2023/09/27 14:05:14;;;;;;;3.40;3.10;;;;;;;;;;6215409;23;20073;-72
2023/09/27 14:07:42;;;;;;;5.50;3.78;;;;;;;;;;6241948;23;20012;-72
2023/09/27 14:10:08;;;;;;;4.47;3.38;;;;;;;;;;6242363;23;20337;-74
2023/09/27 14:12:34;;;;;;;3.78;3.47;;;;;;;;;;6215667;23;20008;-73
2023/09/27 14:15:01;;;;;;;9.45;3.33;;;;;;;;;;6215645;22;20016;-73
2023/09/27 14:17:27;;;;;;;4.70;3.50;;;;;;;;;;6241961;23;20020;-72
2023/09/27 14:19:54;;;;;;;11.63;3.83;;;;;;;;;;6242098;23;20069;-72
2023/09/27 14:22:20;;;;;;;10.82;3.50;;;;;;;;;;6242048;23;20008;-72
2023/09/27 14:24:46;;;;;;;10.57;3.90;;;;;;;;;;6215017;23;20024;-72
2023/09/27 14:27:12;;;;;;;10.80;4.00;;;;;;;;;;6242093;23;20004;-72
2023/09/27 14:29:38;;;;;;;11.95;4.07;;;;;;;;;;6189357;23;20040;-72
2023/09/27 14:32:05;;;;;;;6.45;3.65;;;;;;;;;;6216516;23;20040;-73
2023/09/27 14:34:36;;;;;;;5.47;3.75;;;;;;;;;;6243801;23;20396;-72
2023/09/27 14:37:02;;;;;;;7.30;4.22;;;;;;;;;;6216847;23;20008;-71
2023/09/27 14:39:28;;;;;;;7.00;3.92;;;;;;;;;;6215698;23;20449;-72
2023/09/27 14:41:57;;;;;;;6.18;4.30;;;;;;;;;;6241993;23;20538;-72
2023/09/27 14:44:23;;;;;;;6.50;3.85;;;;;;;;;;6214870;23;20027;-72
2023/09/27 14:46:49;;;;;;;7.28;4.28;;;;;;;;;;6215150;23;20008;-72
2023/09/27 14:49:15;;;;;;;9.93;4.45;;;;;;;;;;6241891;23;20361;-72
2023/09/27 14:51:41;;;;;;;10.63;4.43;;;;;;;;;;6242041;23;20011;-72
2023/09/27 14:54:08;;;;;;;15.38;5.60;;;;;;;;;;6241695;23;20016;-72
2023/09/27 14:56:34;;;;;;;8.00;4.63;;;;;;;;;;6164781;23;20016;-72
2023/09/27 14:59:01;;;;;;;5.88;3.97;;;;;;;;;;6215328;23;20039;-73
2023/09/27 15:01:27;;;;;;;6.35;4.38;;;;;;;;;;6241944;23;20400;-73
2023/09/27 15:03:54;;;;;;;7.40;4.30;;;;;;;;;;6241650;23;20028;-72
2023/09/27 15:06:20;;;;;;;6.68;4.55;;;;;;;;;;6241279;23;20008;-72
2023/09/27 15:08:47;;;;;;;9.98;4.82;;;;;;;;;;6189814;23;20437;-72
2023/09/27 15:11:23;;;;;;;9.50;5.18;;;;;;;;;;6241752;23;20088;-71
2023/09/27 15:13:49;;;;;;;9.27;5.57;;;;;;;;;;6244055;23;20012;-73
2023/09/27 15:16:19;;;;;;;9.00;5.40;;;;;;;;;;6243549;22;20042;-72
2023/09/27 15:18:46;;;;;;;20.10;6.75;;;;;;;;;;6218012;23;20521;-73
2023/09/27 15:21:13;;;;;;;11.88;6.20;;;;;;;;;;6244414;23;20013;-72
2023/09/27 15:23:40;;;;;;;15.73;6.05;;;;;;;;;;6216678;23;20016;-73
2023/09/27 15:26:06;;;;;;;13.05;5.30;;;;;;;;;;6244758;23;20020;-72
2023/09/27 15:28:34;;;;;;;11.25;6.25;;;;;;;;;;6243551;23;20074;-71
2023/09/27 15:31:00;;;;;;;12.02;5.75;;;;;;;;;;6217143;23;20047;-73